createdAt,value
2019-01-15T05:02:51.864Z,94.20
2019-01-15T05:05:27.082Z,94.20
2019-01-15T05:08:02.371Z,94.40
2019-01-15T05:10:37.325Z,94.10
2019-01-15T05:13:12.511Z,94.30
2019-01-15T06:00:12.862Z,94.20
2019-01-15T06:02:48.503Z,94.20
2019-01-15T06:05:23.732Z,94.30
2019-01-15T06:07:59.044Z,94.10
2019-01-15T06:10:34.176Z,94.10
2019-01-15T06:13:10.278Z,93.90
2019-01-15T07:02:51.466Z,93.60
2019-01-15T07:05:26.556Z,93.60
2019-01-15T07:08:01.721Z,93.60
2019-01-15T07:10:36.712Z,93.30
2019-01-15T07:13:11.639Z,93.50
2019-01-15T08:00:16.048Z,92.80
2019-01-15T08:02:51.658Z,92.50
2019-01-15T08:05:26.788Z,92.30
2019-01-15T08:08:01.932Z,92.00
2019-01-15T08:10:37.024Z,91.40
2019-01-15T08:13:13.455Z,91.70
2019-01-15T11:01:17.346Z,57.40
2019-01-15T11:03:52.420Z,56.00
2019-01-15T11:06:27.863Z,55.30
2019-01-15T11:09:03.759Z,56.50
2019-01-15T11:11:40.510Z,52.80
2019-01-15T11:14:17.973Z,52.00
2019-01-15T12:04:12.825Z,61.50
2019-01-15T12:07:10.015Z,58.90
2019-01-15T12:10:10.432Z,59.70
2019-01-15T12:13:11.317Z,60.90
2019-01-15T13:02:55.828Z,68.20
2019-01-15T13:05:35.270Z,69.40
2019-01-15T13:08:41.201Z,70.40
2019-01-15T13:11:36.604Z,71.90
2019-01-15T14:01:25.194Z,80.60
2019-01-15T14:04:19.396Z,81.10
2019-01-15T14:07:16.403Z,80.80
2019-01-15T14:13:13.847Z,82.10
2019-01-15T15:05:39.644Z,83.60
2019-01-15T15:10:55.812Z,83.40
2019-01-15T15:13:37.892Z,84.10
2019-01-15T17:02:08.567Z,84.70
2019-01-15T17:04:49.302Z,84.50
2019-01-15T17:07:30.123Z,83.50
2019-01-15T17:10:31.643Z,84.00
2019-01-15T18:00:48.514Z,82.70
2019-01-15T18:03:33.215Z,83.10
2019-01-15T18:06:14.138Z,83.30
2019-01-15T18:08:49.918Z,83.10
2019-01-15T18:11:31.043Z,82.20
2019-01-15T18:14:26.876Z,83.10
2019-01-15T19:00:32.475Z,81.50
2019-01-15T19:03:32.971Z,81.60
2019-01-15T19:06:14.989Z,81.80
2019-01-15T19:08:59.699Z,82.40
2019-01-15T19:11:53.848Z,82.40
2019-01-15T19:14:45.184Z,82.60
2019-01-15T20:02:11.409Z,82.70
2019-01-15T20:04:56.462Z,82.30
2019-01-15T20:07:38.693Z,82.50
2019-01-15T20:10:16.902Z,82.60
2019-01-15T20:12:55.911Z,82.70
2019-01-15T21:00:34.252Z,82.90
2019-01-15T21:03:16.306Z,83.30
2019-01-15T21:05:58.439Z,83.40
2019-01-15T21:08:38.034Z,83.30
2019-01-15T21:11:18.819Z,83.40
2019-01-15T21:13:53.090Z,83.10
